createdAt,value
2022-10-18T00:01:32.772Z,28.13
2022-10-18T00:03:59.130Z,24.90
2022-10-18T00:06:25.556Z,25.67
2022-10-18T00:08:51.837Z,30.48
2022-10-18T00:11:18.267Z,28.30
2022-10-18T00:13:44.578Z,27.80
2022-10-18T00:16:12.422Z,27.52
2022-10-18T00:18:38.877Z,26.60
2022-10-18T00:21:10.507Z,26.08
2022-10-18T00:23:36.963Z,28.85
2022-10-18T00:26:03.246Z,29.90
2022-10-18T00:28:29.730Z,33.85
2022-10-18T00:30:56.118Z,32.72
2022-10-18T00:33:22.436Z,32.00
2022-10-18T00:35:48.739Z,42.17
2022-10-18T00:38:15.083Z,39.10
2022-10-18T00:40:41.371Z,44.70
2022-10-18T00:43:09.616Z,37.97
2022-10-18T00:45:35.901Z,43.58
2022-10-18T00:48:03.350Z,54.35
2022-10-18T00:50:32.186Z,49.20
2022-10-18T00:53:00.897Z,55.67
2022-10-18T00:55:28.019Z,42.97
2022-10-18T01:00:25.927Z,37.13
2022-10-18T01:02:52.290Z,40.35
2022-10-18T01:05:19.488Z,37.17
2022-10-18T01:07:57.684Z,33.15
2022-10-18T01:10:27.801Z,30.42
2022-10-18T01:13:09.566Z,30.02
2022-10-18T01:15:58.166Z,28.35
2022-10-18T01:18:35.164Z,40.83
2022-10-18T01:21:07.711Z,42.20
2022-10-18T01:26:06.576Z,28.98
2022-10-18T01:31:04.630Z,42.88
2022-10-18T01:33:46.711Z,36.33
2022-10-18T01:36:15.509Z,37.28
2022-10-18T01:38:42.795Z,46.58
2022-10-18T01:41:13.235Z,41.30
2022-10-18T01:43:43.432Z,34.17
2022-10-18T01:46:10.787Z,33.58
2022-10-18T01:48:38.213Z,32.03
2022-10-18T01:51:04.885Z,32.85
2022-10-18T01:53:32.352Z,30.33
2022-10-18T01:56:18.910Z,33.33
2022-10-18T01:58:48.377Z,30.23
2022-10-18T02:01:20.083Z,26.27
2022-10-18T02:03:47.860Z,30.30
2022-10-18T02:06:16.951Z,30.23
2022-10-18T02:08:49.770Z,31.65
2022-10-18T02:11:17.326Z,28.05
2022-10-18T02:13:46.652Z,31.23
2022-10-18T02:16:33.240Z,30.52
2022-10-18T02:19:02.639Z,32.88
2022-10-18T02:21:29.445Z,25.90
2022-10-18T02:23:57.055Z,26.48
2022-10-18T02:26:23.367Z,30.67
2022-10-18T02:28:49.754Z,30.73
2022-10-18T02:31:20.502Z,26.30
2022-10-18T02:33:59.798Z,25.60
2022-10-18T02:36:28.628Z,28.27
2022-10-18T02:38:58.611Z,25.95
2022-10-18T02:41:26.227Z,28.00
2022-10-18T02:43:52.975Z,26.40
2022-10-18T02:46:19.781Z,27.98
2022-10-18T02:48:46.218Z,31.70
2022-10-18T02:51:12.564Z,33.58
2022-10-18T02:53:38.873Z,44.55
2022-10-18T02:56:05.480Z,33.33
2022-10-18T02:58:31.806Z,30.73
2022-10-18T03:00:58.146Z,31.63
2022-10-18T03:03:24.492Z,29.50
2022-10-18T03:05:51.146Z,39.60
2022-10-18T03:08:17.840Z,27.00
2022-10-18T03:10:44.898Z,28.45
2022-10-18T03:13:11.224Z,30.27
2022-10-18T03:15:37.588Z,28.63
2022-10-18T03:18:04.292Z,26.73
2022-10-18T03:20:30.696Z,21.27
2022-10-18T03:22:56.999Z,21.55
2022-10-18T03:25:23.280Z,23.88
2022-10-18T03:27:49.632Z,21.73
2022-10-18T03:30:16.023Z,22.60
2022-10-18T03:32:42.310Z,20.67
2022-10-18T03:35:09.375Z,23.55
2022-10-18T03:37:35.871Z,23.77
2022-10-18T03:40:02.609Z,21.17
2022-10-18T03:42:29.066Z,21.67
2022-10-18T03:44:55.552Z,19.70
2022-10-18T03:47:21.890Z,21.35
2022-10-18T03:49:50.919Z,21.40
2022-10-18T03:52:19.687Z,20.67
2022-10-18T03:54:45.994Z,19.33
2022-10-18T03:57:12.266Z,19.60
2022-10-18T03:59:38.566Z,19.05
2022-10-18T04:02:04.985Z,20.75
2022-10-18T04:04:32.529Z,19.45
2022-10-18T04:06:58.806Z,19.67
2022-10-18T04:09:27.258Z,22.70
2022-10-18T04:11:53.535Z,22.67
2022-10-18T04:14:21.284Z,19.15
2022-10-18T04:16:47.591Z,19.23
2022-10-18T04:19:13.992Z,18.05
2022-10-18T04:21:40.274Z,19.55
2022-10-18T04:24:06.675Z,20.42
2022-10-18T04:26:32.987Z,21.65
2022-10-18T04:28:59.326Z,21.83
2022-10-18T04:31:25.677Z,19.10
2022-10-18T04:33:51.947Z,19.30
2022-10-18T04:36:18.235Z,20.67
2022-10-18T04:38:44.545Z,20.65
2022-10-18T04:41:10.854Z,20.15
2022-10-18T04:43:37.207Z,22.20
2022-10-18T04:46:03.559Z,20.65
2022-10-18T04:48:29.966Z,20.23
2022-10-18T04:50:56.335Z,20.80
2022-10-18T04:53:22.636Z,21.92
2022-10-18T04:55:49.683Z,19.13
2022-10-18T04:58:16.638Z,22.17
2022-10-18T05:00:43.414Z,22.10
2022-10-18T05:03:11.283Z,19.60
2022-10-18T05:05:49.932Z,20.88
2022-10-18T05:08:16.543Z,19.90
2022-10-18T05:10:42.846Z,23.33
2022-10-18T05:13:09.127Z,25.50
2022-10-18T05:15:35.427Z,24.63
2022-10-18T05:18:01.695Z,28.85
2022-10-18T05:20:28.017Z,28.35
2022-10-18T05:22:54.292Z,46.85
2022-10-18T05:25:20.557Z,45.80
2022-10-18T05:27:46.844Z,46.33
2022-10-18T05:30:13.147Z,60.80
2022-10-18T05:32:39.458Z,48.22
2022-10-18T05:35:06.100Z,39.90
2022-10-18T05:37:32.733Z,57.50
2022-10-18T05:39:59.116Z,54.58
2022-10-18T05:42:25.437Z,50.20
2022-10-18T05:44:51.737Z,57.55
2022-10-18T05:47:18.071Z,50.75
2022-10-18T05:49:44.443Z,47.47
2022-10-18T05:52:10.760Z,37.28
2022-10-18T05:54:37.144Z,54.88
2022-10-18T05:57:03.515Z,39.40
2022-10-18T05:59:29.815Z,34.85
2022-10-18T06:01:56.106Z,39.67
2022-10-18T06:04:22.405Z,51.45
2022-10-18T06:06:48.699Z,52.20
2022-10-18T06:09:14.986Z,43.63
2022-10-18T06:11:41.299Z,54.92
2022-10-18T06:14:08.090Z,39.50
2022-10-18T06:16:34.402Z,40.78
2022-10-18T06:19:00.811Z,38.35
2022-10-18T06:21:27.459Z,40.90
2022-10-18T06:23:56.438Z,42.10
2022-10-18T06:26:23.008Z,39.38
2022-10-18T06:28:49.402Z,31.20
2022-10-18T06:31:16.235Z,38.03
2022-10-18T06:33:42.593Z,31.83
2022-10-18T06:36:13.419Z,34.25
2022-10-18T06:38:39.736Z,31.17
2022-10-18T06:41:06.352Z,28.75
2022-10-18T06:43:32.877Z,29.10
2022-10-18T06:46:00.382Z,24.05
2022-10-18T06:48:26.698Z,27.77
2022-10-18T06:50:59.396Z,26.00
2022-10-18T06:53:26.658Z,21.42
2022-10-18T06:55:53.292Z,17.15
2022-10-18T06:58:19.594Z,19.63
2022-10-18T07:00:46.875Z,18.42
2022-10-18T07:03:13.563Z,14.57
2022-10-18T07:05:39.973Z,20.27
2022-10-18T07:08:06.292Z,15.13
2022-10-18T07:10:32.676Z,14.25
2022-10-18T07:13:13.730Z,15.93
2022-10-18T07:15:45.410Z,14.57
2022-10-18T07:18:11.750Z,14.98
2022-10-18T07:20:38.042Z,12.05
2022-10-18T07:23:07.014Z,14.05
2022-10-18T07:25:33.296Z,13.80
2022-10-18T07:27:59.570Z,13.43
2022-10-18T07:30:25.962Z,14.35
2022-10-18T07:32:52.260Z,15.50
2022-10-18T07:35:18.600Z,15.55
2022-10-18T07:37:44.915Z,17.52
2022-10-18T07:40:12.041Z,16.25
2022-10-18T07:42:38.358Z,15.15
2022-10-18T07:45:04.736Z,15.00
2022-10-18T07:47:34.251Z,13.55
2022-10-18T07:50:01.636Z,15.15
2022-10-18T07:52:27.934Z,15.55
2022-10-18T07:54:54.214Z,14.40
2022-10-18T07:57:20.511Z,14.15
2022-10-18T07:59:48.134Z,14.32
2022-10-18T08:02:14.422Z,15.02
2022-10-18T08:04:41.492Z,14.88
2022-10-18T08:07:07.823Z,14.98
2022-10-18T08:09:34.116Z,14.80
2022-10-18T08:12:00.488Z,14.15
2022-10-18T08:14:26.763Z,14.43
2022-10-18T08:16:53.096Z,14.25
2022-10-18T08:19:19.375Z,12.30
2022-10-18T08:21:45.657Z,13.77
2022-10-18T08:24:11.959Z,11.60
2022-10-18T08:26:38.345Z,11.90
2022-10-18T08:29:21.047Z,11.82
2022-10-18T08:31:49.347Z,10.93
2022-10-18T08:34:19.471Z,9.68
2022-10-18T08:36:46.205Z,9.70
2022-10-18T08:39:12.487Z,9.02
2022-10-18T08:41:44.942Z,9.35
2022-10-18T08:44:14.342Z,9.05
2022-10-18T08:46:42.481Z,8.25
2022-10-18T08:49:12.010Z,9.15
2022-10-18T08:51:46.544Z,8.23
2022-10-18T08:54:18.910Z,7.72
2022-10-18T08:56:56.375Z,7.63
2022-10-18T08:59:25.381Z,7.00
2022-10-18T09:02:10.864Z,7.13
2022-10-18T09:04:45.795Z,6.60
2022-10-18T09:07:14.864Z,4.80
2022-10-18T09:09:45.789Z,4.43
2022-10-18T09:12:32.615Z,3.60
2022-10-18T09:15:17.604Z,3.60
2022-10-18T09:17:53.346Z,3.28
2022-10-18T09:20:23.873Z,3.55
2022-10-18T09:22:58.991Z,3.83
2022-10-18T09:25:34.276Z,4.60
2022-10-18T09:28:14.732Z,4.25
2022-10-18T09:31:04.319Z,4.10
2022-10-18T09:33:35.557Z,3.63
2022-10-18T09:36:03.978Z,3.47
2022-10-18T09:38:34.985Z,4.28
2022-10-18T09:41:10.466Z,3.88
2022-10-18T09:43:45.932Z,3.20
2022-10-18T09:46:13.460Z,2.55
2022-10-18T09:48:45.391Z,2.88
2022-10-18T09:51:21.519Z,2.65
2022-10-18T09:54:01.668Z,1.88
2022-10-18T09:56:44.560Z,2.65
2022-10-18T09:59:23.258Z,1.90
2022-10-18T10:01:49.531Z,2.30
2022-10-18T10:04:15.880Z,1.95
2022-10-18T10:06:49.215Z,1.95
2022-10-18T10:09:16.708Z,2.30
2022-10-18T10:11:48.008Z,2.20
2022-10-18T10:14:14.327Z,1.67
2022-10-18T10:16:48.323Z,1.60
2022-10-18T10:19:16.615Z,1.75
2022-10-18T10:21:42.956Z,1.80
2022-10-18T10:24:35.763Z,1.73
2022-10-18T10:27:03.794Z,2.03
2022-10-18T10:29:45.310Z,1.45
2022-10-18T10:32:15.882Z,1.70
2022-10-18T10:34:44.729Z,2.95
2022-10-18T10:37:23.263Z,1.80
2022-10-18T10:40:17.779Z,2.17
2022-10-18T10:43:19.630Z,1.80
2022-10-18T10:46:02.613Z,1.90
2022-10-18T10:48:33.373Z,1.48
2022-10-18T10:50:59.974Z,1.63
2022-10-18T10:53:27.540Z,2.05
2022-10-18T10:55:54.778Z,2.30
2022-10-18T10:58:21.356Z,1.35
2022-10-18T11:00:47.635Z,1.20
2022-10-18T11:03:27.922Z,1.40
2022-10-18T11:05:55.476Z,1.25
2022-10-18T11:08:26.631Z,2.08
2022-10-18T11:10:52.872Z,1.90
2022-10-18T11:13:25.884Z,1.58
2022-10-18T11:16:00.293Z,2.13
2022-10-18T11:18:34.150Z,1.52
2022-10-18T11:21:12.438Z,1.40
2022-10-18T11:23:39.976Z,2.55
2022-10-18T11:26:12.097Z,1.95
2022-10-18T11:28:38.443Z,1.77
2022-10-18T11:31:07.578Z,1.80
2022-10-18T11:34:07.596Z,1.63
2022-10-18T11:36:29.999Z,1.50
2022-10-18T11:39:18.546Z,1.40
2022-10-18T11:41:53.174Z,1.42
2022-10-18T11:44:19.484Z,1.73
2022-10-18T11:46:51.701Z,1.33
2022-10-18T11:49:17.956Z,1.90
2022-10-18T11:52:08.387Z,1.80
2022-10-18T11:54:58.699Z,2.25
2022-10-18T11:57:32.349Z,1.80
2022-10-18T12:00:01.556Z,1.30
2022-10-18T12:02:38.690Z,2.15
2022-10-18T12:05:22.424Z,1.50
2022-10-18T12:08:02.454Z,1.50
2022-10-18T12:10:44.435Z,1.63
2022-10-18T12:13:22.900Z,2.17
2022-10-18T12:15:49.688Z,1.60
2022-10-18T12:18:17.816Z,1.42
2022-10-18T12:20:48.937Z,1.52
2022-10-18T12:23:16.696Z,1.45
2022-10-18T12:25:45.389Z,1.90
2022-10-18T12:28:17.572Z,1.33
2022-10-18T12:30:49.344Z,1.23
2022-10-18T12:33:28.120Z,1.50
2022-10-18T12:36:01.917Z,1.45
2022-10-18T12:38:30.572Z,1.83
2022-10-18T12:40:57.635Z,1.35
2022-10-18T12:43:27.417Z,1.50
2022-10-18T12:45:54.134Z,1.90
2022-10-18T12:48:43.226Z,1.88
2022-10-18T12:51:12.322Z,1.55
2022-10-18T12:53:39.641Z,1.15
2022-10-18T12:56:25.268Z,1.83
2022-10-18T12:58:51.631Z,2.80
2022-10-18T13:01:17.968Z,1.60
2022-10-18T13:03:52.888Z,1.88
2022-10-18T13:06:19.478Z,1.73
2022-10-18T13:08:47.996Z,1.58
2022-10-18T13:11:27.187Z,1.65
2022-10-18T13:14:12.279Z,1.30
2022-10-18T13:16:43.646Z,2.00
2022-10-18T13:19:32.822Z,1.80
2022-10-18T13:22:05.155Z,1.73
2022-10-18T13:24:34.432Z,1.55
2022-10-18T13:27:36.233Z,1.88
2022-10-18T13:30:12.027Z,1.85
2022-10-18T13:33:00.573Z,1.38
2022-10-18T13:35:45.622Z,1.88
2022-10-18T13:38:30.038Z,1.25
2022-10-18T13:41:06.522Z,1.48
2022-10-18T13:43:52.562Z,1.27
2022-10-18T13:46:20.231Z,1.13
2022-10-18T13:48:47.653Z,1.10
2022-10-18T13:51:32.822Z,0.90
2022-10-18T13:54:17.872Z,1.83
2022-10-18T13:56:44.238Z,1.27
2022-10-18T13:59:14.836Z,1.50
2022-10-18T14:01:53.983Z,1.55
2022-10-18T14:04:26.445Z,1.40
2022-10-18T14:09:26.062Z,1.80
2022-10-18T14:12:07.160Z,2.20
2022-10-18T14:14:45.244Z,1.88
2022-10-18T14:17:28.203Z,1.85
2022-10-18T14:20:06.568Z,1.70
2022-10-18T14:22:51.291Z,2.03
2022-10-18T14:25:22.432Z,2.85
2022-10-18T14:27:50.969Z,1.60
2022-10-18T14:30:20.504Z,1.80
2022-10-18T14:32:51.687Z,2.90
2022-10-18T14:35:32.490Z,2.08
2022-10-18T14:37:59.823Z,2.25
2022-10-18T14:40:35.186Z,2.20
2022-10-18T14:43:11.070Z,1.67
2022-10-18T14:45:37.848Z,1.80
2022-10-18T14:48:07.027Z,2.00
2022-10-18T14:50:33.549Z,2.33
2022-10-18T14:53:04.434Z,2.13
2022-10-18T14:55:32.987Z,1.95
2022-10-18T14:57:59.399Z,2.20
2022-10-18T15:00:32.619Z,1.50
2022-10-18T15:03:00.438Z,2.10
2022-10-18T15:05:27.264Z,1.48
2022-10-18T15:07:53.811Z,2.47
2022-10-18T15:10:21.787Z,1.65
2022-10-18T15:13:08.770Z,2.00
2022-10-18T15:15:35.244Z,1.48
2022-10-18T15:18:01.735Z,2.38
2022-10-18T15:20:31.387Z,2.20
2022-10-18T15:23:16.452Z,1.60
2022-10-18T15:25:42.846Z,1.80
2022-10-18T15:28:18.345Z,1.73
2022-10-18T15:30:44.658Z,1.90
2022-10-18T15:33:21.950Z,1.65
2022-10-18T15:35:49.484Z,1.92
2022-10-18T15:38:17.270Z,2.35
2022-10-18T15:40:44.030Z,1.75
2022-10-18T15:43:25.574Z,1.67
2022-10-18T15:46:00.049Z,2.03
2022-10-18T15:48:47.563Z,2.10
2022-10-18T15:51:32.156Z,1.83
2022-10-18T15:53:58.449Z,1.73
2022-10-18T15:56:27.805Z,1.67
2022-10-18T15:58:56.782Z,1.92
2022-10-18T16:01:27.977Z,2.25
2022-10-18T16:06:25.527Z,2.90
2022-10-18T16:08:53.061Z,1.65
2022-10-18T16:11:20.838Z,2.20
2022-10-18T16:13:47.403Z,1.83
2022-10-18T16:16:15.838Z,2.47
2022-10-18T16:18:42.215Z,2.13
2022-10-18T16:21:28.474Z,2.22
2022-10-18T16:23:55.172Z,3.72
2022-10-18T16:26:21.964Z,2.13
2022-10-18T16:28:48.777Z,1.77
2022-10-18T16:31:17.305Z,1.98
2022-10-18T16:33:43.937Z,2.15
2022-10-18T16:36:14.967Z,2.35
2022-10-18T16:38:41.587Z,2.58
2022-10-18T16:41:08.462Z,1.90
2022-10-18T16:43:35.262Z,2.25
2022-10-18T16:46:02.316Z,1.90
2022-10-18T16:48:28.829Z,2.35
2022-10-18T16:50:56.143Z,1.92
2022-10-18T16:53:26.220Z,1.92
2022-10-18T16:55:54.416Z,2.08
2022-10-18T17:00:50.492Z,2.35
2022-10-18T17:03:16.972Z,2.47
2022-10-18T17:05:43.488Z,2.53
2022-10-18T17:08:18.105Z,4.18
2022-10-18T17:10:45.496Z,4.95
2022-10-18T17:13:11.849Z,5.40
2022-10-18T17:15:38.489Z,3.05
2022-10-18T17:18:05.872Z,4.50
2022-10-18T17:20:32.155Z,4.10
2022-10-18T17:22:58.684Z,6.20
2022-10-18T17:25:27.087Z,8.43
2022-10-18T17:27:53.433Z,5.95
2022-10-18T17:30:19.905Z,5.20
2022-10-18T17:32:46.294Z,4.50
2022-10-18T17:35:12.693Z,4.35
2022-10-18T17:37:43.950Z,5.82
2022-10-18T17:40:12.306Z,3.60
2022-10-18T17:42:38.923Z,4.22
2022-10-18T17:45:07.651Z,3.83
2022-10-18T17:47:42.283Z,3.95
2022-10-18T17:50:09.221Z,4.30
2022-10-18T17:57:36.138Z,4.20
2022-10-18T18:00:03.053Z,4.68
2022-10-18T18:02:41.097Z,13.57
2022-10-18T18:05:08.967Z,11.98
2022-10-18T18:07:35.413Z,13.23
2022-10-18T18:10:01.711Z,16.00
2022-10-18T18:12:28.451Z,18.60
2022-10-18T18:14:54.766Z,14.63
2022-10-18T18:17:28.709Z,6.15
2022-10-18T18:20:00.616Z,4.53
2022-10-18T18:22:26.911Z,5.35
2022-10-18T18:24:53.419Z,4.10
2022-10-18T18:27:19.760Z,4.10
2022-10-18T18:29:46.130Z,4.30
2022-10-18T18:32:12.487Z,4.55
2022-10-18T18:34:40.518Z,5.82
2022-10-18T18:37:07.608Z,4.35
2022-10-18T18:39:39.162Z,5.65
2022-10-18T18:42:05.804Z,4.75
2022-10-18T18:44:33.793Z,5.50
2022-10-18T18:47:03.159Z,5.65
2022-10-18T18:49:31.307Z,6.85
2022-10-18T18:51:57.668Z,5.15
2022-10-18T18:54:24.851Z,5.15
2022-10-18T18:56:51.198Z,5.13
2022-10-18T18:59:19.768Z,4.90
2022-10-18T19:01:46.254Z,5.20
2022-10-18T19:04:12.784Z,4.07
2022-10-18T19:06:42.750Z,4.88
2022-10-18T19:09:18.275Z,5.30
2022-10-18T19:11:46.900Z,4.07
2022-10-18T19:14:13.645Z,4.40
2022-10-18T19:16:41.342Z,4.88
2022-10-18T19:19:10.259Z,4.43
2022-10-18T19:21:39.277Z,4.32
2022-10-18T19:24:07.293Z,3.88
2022-10-18T19:26:48.710Z,4.63
2022-10-18T19:29:21.210Z,5.28
2022-10-18T19:31:48.139Z,5.63
2022-10-18T19:34:18.191Z,7.07
2022-10-18T19:36:45.612Z,6.50
2022-10-18T19:39:23.056Z,5.28
2022-10-18T19:41:52.212Z,5.70
2022-10-18T19:44:20.512Z,5.53
2022-10-18T19:46:48.306Z,6.63
2022-10-18T19:49:14.980Z,5.47
2022-10-18T19:51:41.772Z,5.10
2022-10-18T19:54:08.402Z,4.97
2022-10-18T19:56:37.017Z,5.13
2022-10-18T19:59:06.346Z,6.47
2022-10-18T20:01:33.463Z,5.90
2022-10-18T20:04:17.829Z,5.47
2022-10-18T20:06:44.392Z,5.82
2022-10-18T20:09:13.443Z,5.88
2022-10-18T20:11:42.595Z,5.60
2022-10-18T20:14:11.633Z,6.07
2022-10-18T20:16:37.972Z,5.70
2022-10-18T20:19:05.699Z,6.25
2022-10-18T20:21:36.447Z,6.15
2022-10-18T20:24:03.477Z,5.57
2022-10-18T20:26:33.032Z,5.95
2022-10-18T20:28:59.936Z,5.80
2022-10-18T20:31:30.580Z,6.30
2022-10-18T20:33:58.214Z,6.18
2022-10-18T20:36:25.095Z,5.47
2022-10-18T20:38:51.452Z,5.32
2022-10-18T20:41:19.056Z,5.25
2022-10-18T20:43:52.239Z,5.68
2022-10-18T20:46:18.645Z,6.10
2022-10-18T20:48:44.956Z,5.63
2022-10-18T20:51:14.470Z,6.60
2022-10-18T20:53:40.790Z,7.47
2022-10-18T20:56:08.761Z,8.25
2022-10-18T20:58:35.847Z,7.75
2022-10-18T21:01:09.751Z,6.68
2022-10-18T21:03:37.235Z,8.65
2022-10-18T21:06:10.418Z,8.65
2022-10-18T21:08:36.781Z,8.52
2022-10-18T21:11:03.397Z,8.18
2022-10-18T21:13:29.796Z,7.70
2022-10-18T21:15:57.097Z,7.95
2022-10-18T21:18:24.460Z,7.10
2022-10-18T21:20:50.764Z,8.82
2022-10-18T21:23:17.049Z,7.93
2022-10-18T21:25:46.680Z,7.80
2022-10-18T21:28:13.244Z,8.63
2022-10-18T21:30:40.579Z,9.75
2022-10-18T21:33:09.572Z,8.23
2022-10-18T21:35:37.278Z,8.07
2022-10-18T21:38:04.619Z,8.35
2022-10-18T21:40:31.270Z,9.23
2022-10-18T21:42:57.718Z,7.93
2022-10-18T21:45:24.007Z,8.57
2022-10-18T21:47:50.312Z,7.63
2022-10-18T21:50:16.861Z,8.00
2022-10-18T21:52:43.186Z,7.38
2022-10-18T21:55:09.663Z,8.85
2022-10-18T22:00:07.803Z,9.30
2022-10-18T22:02:34.443Z,8.68
2022-10-18T22:05:00.971Z,8.75
2022-10-18T22:07:27.274Z,8.80
2022-10-18T22:09:53.550Z,8.52
2022-10-18T22:12:19.893Z,8.45
2022-10-18T22:14:46.251Z,9.32
2022-10-18T22:17:12.543Z,8.38
2022-10-18T22:19:41.031Z,8.68
2022-10-18T22:22:07.337Z,9.38
2022-10-18T22:24:33.683Z,8.30
2022-10-18T22:27:00.058Z,8.88
2022-10-18T22:29:26.387Z,9.13
2022-10-18T22:31:53.464Z,8.38
2022-10-18T22:34:20.813Z,8.63
2022-10-18T22:36:47.132Z,8.52
2022-10-18T22:39:14.440Z,9.43
2022-10-18T22:41:40.949Z,8.25
2022-10-18T22:44:08.266Z,7.80
2022-10-18T22:46:35.011Z,8.75
2022-10-18T22:49:01.333Z,9.13
2022-10-18T22:51:27.677Z,9.40
2022-10-18T22:53:54.061Z,11.60
2022-10-18T22:56:21.239Z,12.05
2022-10-18T22:58:48.146Z,14.90
2022-10-18T23:01:16.435Z,17.10
2022-10-18T23:03:42.806Z,16.05
2022-10-18T23:06:25.852Z,17.90
2022-10-18T23:08:52.824Z,18.52
2022-10-18T23:11:19.468Z,23.30
2022-10-18T23:13:46.025Z,16.35
2022-10-18T23:16:12.531Z,16.60
2022-10-18T23:21:07.481Z,16.10
2022-10-18T23:23:35.495Z,13.93
2022-10-18T23:26:05.806Z,11.55
2022-10-18T23:28:36.128Z,11.02
2022-10-18T23:31:13.132Z,12.15
2022-10-18T23:33:39.999Z,10.70
2022-10-18T23:36:07.117Z,10.05
2022-10-18T23:38:33.518Z,10.73
2022-10-18T23:40:59.886Z,9.82
2022-10-18T23:43:26.189Z,8.80
2022-10-18T23:45:52.550Z,10.02
2022-10-18T23:48:18.898Z,9.25
2022-10-18T23:50:45.479Z,10.55
2022-10-18T23:53:12.013Z,9.73
2022-10-18T23:55:38.343Z,9.77
2022-10-18T23:58:04.655Z,9.77
